Time;durP1;ratioP1;P1;durP2;ratioP2;P2;SDS_P1;SDS_P2;PMS_P1;PMS_P2;Temp;Humidity;BMP_temperature;BMP_pressure;BME280_temperature;BME280_humidity;BME280_pressure;Samples;Min_cycle;Max_cycle;Signal;HPM_P1;HPM_P2
2021/04/30 00:01:33;;;;;;;11.07;5.45;;;;;;;;;;5079621;28;20224;-53
2021/04/30 00:04:00;;;;;;;7.07;4.80;;;;;;;;;;5097761;28;20201;-55
2021/04/30 00:06:27;;;;;;;8.32;4.57;;;;;;;;;;5093769;28;20187;-56
2021/04/30 00:09:01;;;;;;;11.70;6.15;;;;;;;;;;5076936;28;20241;-53
2021/04/30 00:11:28;;;;;;;9.30;4.75;;;;;;;;;;5076636;28;20245;-51
2021/04/30 00:13:55;;;;;;;14.57;6.05;;;;;;;;;;5077476;28;20229;-52
2021/04/30 00:16:32;;;;;;;9.50;5.40;;;;;;;;;;5092946;28;20200;-47
2021/04/30 00:18:59;;;;;;;12.35;5.55;;;;;;;;;;5097507;28;20217;-56
2021/04/30 00:21:28;;;;;;;8.70;5.20;;;;;;;;;;5096686;28;20248;-54
2021/04/30 00:24:01;;;;;;;11.85;4.80;;;;;;;;;;5097083;28;20213;-55
2021/04/30 00:26:28;;;;;;;8.48;4.55;;;;;;;;;;5096569;28;20194;-55
2021/04/30 00:28:57;;;;;;;7.10;5.05;;;;;;;;;;5097642;28;20190;-56
2021/04/30 00:31:24;;;;;;;9.10;4.20;;;;;;;;;;5096077;28;20232;-53
2021/04/30 00:33:51;;;;;;;8.88;4.68;;;;;;;;;;5096768;28;20216;-55
2021/04/30 00:36:18;;;;;;;8.48;4.78;;;;;;;;;;5096665;28;20210;-54
2021/04/30 00:38:55;;;;;;;7.82;4.40;;;;;;;;;;5097354;28;20209;-50
2021/04/30 00:41:22;;;;;;;7.50;4.75;;;;;;;;;;5096781;28;20221;-55
2021/04/30 00:43:49;;;;;;;9.40;4.65;;;;;;;;;;5096563;28;20194;-49
2021/04/30 00:46:36;;;;;;;10.70;5.03;;;;;;;;;;5096699;28;20208;-57
2021/04/30 00:49:03;;;;;;;6.47;4.05;;;;;;;;;;5096739;28;20209;-56
2021/04/30 00:51:30;;;;;;;7.95;5.28;;;;;;;;;;5096380;28;20237;-56
2021/04/30 00:53:59;;;;;;;8.75;5.40;;;;;;;;;;5096454;28;20205;-51
2021/04/30 00:56:26;;;;;;;8.45;4.13;;;;;;;;;;5096551;28;20209;-54
2021/04/30 00:58:53;;;;;;;8.40;4.28;;;;;;;;;;5096776;28;20206;-52
2021/04/30 01:01:27;;;;;;;7.97;4.65;;;;;;;;;;5096286;28;20233;-50
2021/04/30 01:03:54;;;;;;;15.70;5.85;;;;;;;;;;5096239;28;20209;-56
2021/04/30 01:06:21;;;;;;;8.65;5.30;;;;;;;;;;5095709;28;20292;-56
2021/04/30 01:08:51;;;;;;;13.18;4.28;;;;;;;;;;5096124;28;20210;-52
2021/04/30 01:11:17;;;;;;;7.95;3.95;;;;;;;;;;5095791;28;20221;-53
2021/04/30 01:13:44;;;;;;;8.10;4.32;;;;;;;;;;5095879;28;20260;-57
2021/04/30 01:16:11;;;;;;;8.25;4.32;;;;;;;;;;5095815;28;20267;-52
2021/04/30 01:18:41;;;;;;;8.95;4.07;;;;;;;;;;5096166;28;20213;-53
2021/04/30 01:21:09;;;;;;;15.02;5.18;;;;;;;;;;5095914;28;20193;-57
2021/04/30 01:23:45;;;;;;;11.77;5.47;;;;;;;;;;5096590;28;20194;-55
2021/04/30 01:26:12;;;;;;;8.40;4.88;;;;;;;;;;5096104;28;20205;-53
2021/04/30 01:28:39;;;;;;;11.23;5.15;;;;;;;;;;5095823;28;20209;-57
2021/04/30 01:31:06;;;;;;;7.75;4.45;;;;;;;;;;5095959;28;20228;-55
2021/04/30 01:33:35;;;;;;;11.68;5.28;;;;;;;;;;5095693;28;20315;-52
2021/04/30 01:36:18;;;;;;;10.18;5.35;;;;;;;;;;5096037;28;20202;-52
2021/04/30 01:38:45;;;;;;;14.77;5.68;;;;;;;;;;5096042;28;20194;-53
2021/04/30 01:41:12;;;;;;;11.60;6.10;;;;;;;;;;5095799;28;20190;-55
2021/04/30 01:43:42;;;;;;;18.80;5.10;;;;;;;;;;5090370;28;20210;-54
2021/04/30 01:46:09;;;;;;;9.40;5.25;;;;;;;;;;5075462;28;20214;-57
2021/04/30 01:48:38;;;;;;;11.52;5.88;;;;;;;;;;5076068;28;20210;-52
2021/04/30 01:51:05;;;;;;;19.77;6.45;;;;;;;;;;5075836;28;20293;-57
2021/04/30 01:53:33;;;;;;;13.63;6.88;;;;;;;;;;5089118;28;20202;-53
2021/04/30 01:56:09;;;;;;;13.95;5.80;;;;;;;;;;5095955;28;20194;-49
2021/04/30 01:58:36;;;;;;;13.35;5.85;;;;;;;;;;5095722;28;20201;-52
2021/04/30 02:01:04;;;;;;;10.13;6.20;;;;;;;;;;5095827;28;20202;-50
2021/04/30 02:03:31;;;;;;;8.10;5.72;;;;;;;;;;5095760;28;20201;-53
2021/04/30 02:05:57;;;;;;;10.85;6.05;;;;;;;;;;5095396;28;20221;-48
2021/04/30 02:08:24;;;;;;;13.48;6.97;;;;;;;;;;5095181;28;20210;-58
2021/04/30 02:11:10;;;;;;;11.85;6.93;;;;;;;;;;5095687;28;20210;-47
2021/04/30 02:13:37;;;;;;;11.38;7.07;;;;;;;;;;5095554;28;20238;-49
2021/04/30 02:16:04;;;;;;;13.70;7.90;;;;;;;;;;5095190;28;20213;-51
2021/04/30 02:18:30;;;;;;;14.88;6.07;;;;;;;;;;5095238;28;20225;-55
2021/04/30 02:20:57;;;;;;;11.65;6.60;;;;;;;;;;5094171;28;20213;-53
2021/04/30 02:23:24;;;;;;;13.07;7.70;;;;;;;;;;5095003;28;20194;-52
2021/04/30 02:25:51;;;;;;;14.40;7.38;;;;;;;;;;5095190;28;20198;-54
2021/04/30 02:28:19;;;;;;;12.40;7.43;;;;;;;;;;5095629;28;20205;-51
2021/04/30 02:30:46;;;;;;;22.85;7.18;;;;;;;;;;5095394;28;20301;-56
2021/04/30 02:33:26;;;;;;;8.82;6.65;;;;;;;;;;5095240;28;20209;-56
2021/04/30 02:35:53;;;;;;;15.43;8.13;;;;;;;;;;5093509;28;20496;-51
2021/04/30 02:38:20;;;;;;;18.02;8.82;;;;;;;;;;5095392;28;20198;-52
2021/04/30 02:40:48;;;;;;;11.02;7.45;;;;;;;;;;5095022;28;20259;-53
2021/04/30 02:43:16;;;;;;;11.55;7.55;;;;;;;;;;5094948;28;20190;-50
2021/04/30 02:45:44;;;;;;;14.73;7.88;;;;;;;;;;5094879;28;20178;-57
2021/04/30 02:48:33;;;;;;;12.80;8.13;;;;;;;;;;5095210;28;20231;-54
2021/04/30 02:51:02;;;;;;;12.75;8.00;;;;;;;;;;5094143;28;20253;-57
2021/04/30 02:53:28;;;;;;;12.57;8.35;;;;;;;;;;5095292;28;20221;-54
2021/04/30 02:56:06;;;;;;;18.52;9.25;;;;;;;;;;5097675;28;20216;-54
2021/04/30 02:58:33;;;;;;;13.38;7.07;;;;;;;;;;5097969;28;20277;-52
2021/04/30 03:01:01;;;;;;;16.52;7.93;;;;;;;;;;5098594;28;20216;-49
2021/04/30 03:03:30;;;;;;;12.93;8.88;;;;;;;;;;5098684;28;20220;-54
2021/04/30 03:05:56;;;;;;;17.13;10.88;;;;;;;;;;5098326;28;20235;-54
2021/04/30 03:08:23;;;;;;;16.27;7.85;;;;;;;;;;5098876;28;20194;-49
2021/04/30 03:10:54;;;;;;;19.08;8.38;;;;;;;;;;5098246;28;20214;-54
2021/04/30 03:13:21;;;;;;;13.07;8.88;;;;;;;;;;5087899;28;20209;-53
2021/04/30 03:15:49;;;;;;;16.25;9.60;;;;;;;;;;5078635;28;20241;-54
2021/04/30 03:18:23;;;;;;;18.23;9.50;;;;;;;;;;5078466;28;20195;-53
2021/04/30 03:20:49;;;;;;;13.90;8.02;;;;;;;;;;5078532;28;20209;-55
2021/04/30 03:23:16;;;;;;;10.45;7.80;;;;;;;;;;5078188;28;20190;-53
2021/04/30 03:25:43;;;;;;;15.52;9.00;;;;;;;;;;5078399;28;20210;-55
2021/04/30 03:28:12;;;;;;;15.15;8.18;;;;;;;;;;5078643;28;20206;-55
2021/04/30 03:30:39;;;;;;;14.68;8.20;;;;;;;;;;5077976;28;20222;-56
2021/04/30 03:33:07;;;;;;;15.40;9.05;;;;;;;;;;5078965;28;20217;-56
2021/04/30 03:35:35;;;;;;;15.48;9.98;;;;;;;;;;5098175;28;20225;-52
2021/04/30 03:38:03;;;;;;;15.40;9.25;;;;;;;;;;5087048;28;20541;-56
2021/04/30 03:40:30;;;;;;;15.25;9.68;;;;;;;;;;5078202;28;20185;-52
2021/04/30 03:42:57;;;;;;;20.65;9.38;;;;;;;;;;5078658;28;20202;-57
2021/04/30 03:45:24;;;;;;;15.65;9.77;;;;;;;;;;5077849;28;20218;-55
2021/04/30 03:47:50;;;;;;;16.17;11.23;;;;;;;;;;5078335;28;20571;-51
2021/04/30 03:50:17;;;;;;;19.00;10.77;;;;;;;;;;5078022;28;20320;-51
2021/04/30 03:52:51;;;;;;;15.18;9.45;;;;;;;;;;5077711;28;20211;-51
2021/04/30 03:55:18;;;;;;;11.75;8.57;;;;;;;;;;5077938;28;20221;-57
2021/04/30 03:57:45;;;;;;;14.82;10.82;;;;;;;;;;5078075;28;20222;-51
2021/04/30 04:00:27;;;;;;;16.58;9.90;;;;;;;;;;5078107;28;20210;-50
2021/04/30 04:02:54;;;;;;;11.52;9.68;;;;;;;;;;5078071;28;20295;-52
2021/04/30 04:05:21;;;;;;;18.67;10.27;;;;;;;;;;5077850;28;20211;-55
2021/04/30 04:07:48;;;;;;;19.40;12.70;;;;;;;;;;5076589;28;20206;-53
2021/04/30 04:10:16;;;;;;;14.00;10.23;;;;;;;;;;5077698;28;20258;-54
2021/04/30 04:12:43;;;;;;;19.02;9.63;;;;;;;;;;5077852;28;20202;-52
2021/04/30 04:15:37;;;;;;;21.95;11.65;;;;;;;;;;5077712;28;20241;-53
2021/04/30 04:18:04;;;;;;;16.98;10.68;;;;;;;;;;5079901;28;20219;-48
2021/04/30 04:20:31;;;;;;;15.02;11.15;;;;;;;;;;5097028;28;20197;-56
2021/04/30 04:22:57;;;;;;;14.07;10.20;;;;;;;;;;5096999;28;20205;-59
2021/04/30 04:25:29;;;;;;;17.08;11.30;;;;;;;;;;5084019;28;20191;-57
2021/04/30 04:27:56;;;;;;;20.40;10.98;;;;;;;;;;5077124;28;20190;-56
2021/04/30 04:30:23;;;;;;;15.15;10.93;;;;;;;;;;5076888;28;20245;-55
2021/04/30 04:32:51;;;;;;;18.20;12.75;;;;;;;;;;5076740;28;20238;-52
2021/04/30 04:35:17;;;;;;;15.38;10.52;;;;;;;;;;5075978;28;20261;-55
2021/04/30 04:37:45;;;;;;;24.90;10.73;;;;;;;;;;5076429;28;20274;-56
2021/04/30 04:40:29;;;;;;;20.45;12.65;;;;;;;;;;5076933;28;20249;-53
2021/04/30 04:42:56;;;;;;;13.85;10.55;;;;;;;;;;5076993;28;20205;-54
2021/04/30 04:45:22;;;;;;;16.38;11.50;;;;;;;;;;5076739;28;20210;-53
2021/04/30 04:50:53;;;;;;;16.15;11.38;;;;;;;;;;5075812;28;20213;-51
2021/04/30 04:53:25;;;;;;;20.80;13.52;;;;;;;;;;5076462;28;20198;-53
2021/04/30 04:56:11;;;;;;;17.83;10.68;;;;;;;;;;5075624;28;20195;-58
2021/04/30 04:58:39;;;;;;;16.00;11.45;;;;;;;;;;5076335;28;20249;-49
2021/04/30 05:01:06;;;;;;;16.80;12.00;;;;;;;;;;5075917;28;20187;-59
2021/04/30 05:03:43;;;;;;;19.35;10.73;;;;;;;;;;5075504;28;20222;-58
2021/04/30 05:06:10;;;;;;;21.52;11.95;;;;;;;;;;5075617;28;20369;-52
2021/04/30 05:08:37;;;;;;;16.27;12.00;;;;;;;;;;5075698;28;20191;-53
2021/04/30 05:11:19;;;;;;;18.65;11.68;;;;;;;;;;5076032;28;20254;-52
2021/04/30 05:13:46;;;;;;;19.52;13.88;;;;;;;;;;5075853;28;20238;-51
2021/04/30 05:16:13;;;;;;;16.55;11.43;;;;;;;;;;5075689;28;20194;-52
2021/04/30 05:18:47;;;;;;;18.08;11.35;;;;;;;;;;5074760;28;20357;-51
2021/04/30 05:21:14;;;;;;;14.90;11.02;;;;;;;;;;5083328;28;20204;-55
2021/04/30 05:23:41;;;;;;;17.15;11.32;;;;;;;;;;5095710;28;20236;-56
2021/04/30 05:26:14;;;;;;;15.38;11.95;;;;;;;;;;5095098;28;20202;-55
2021/04/30 05:28:42;;;;;;;20.52;11.25;;;;;;;;;;5090652;28;20502;-53
2021/04/30 05:31:09;;;;;;;19.25;11.93;;;;;;;;;;5095669;28;20222;-55
2021/04/30 05:33:37;;;;;;;17.55;11.50;;;;;;;;;;5094762;28;20206;-51
2021/04/30 05:36:07;;;;;;;22.08;11.13;;;;;;;;;;5088464;28;20248;-52
2021/04/30 05:38:39;;;;;;;19.48;12.07;;;;;;;;;;5075227;28;20214;-56
2021/04/30 05:41:14;;;;;;;16.42;12.35;;;;;;;;;;5075324;28;20217;-55
2021/04/30 05:43:47;;;;;;;21.80;13.45;;;;;;;;;;5075043;28;20210;-50
2021/04/30 05:46:15;;;;;;;16.83;11.45;;;;;;;;;;5075024;28;20406;-56
2021/04/30 05:48:42;;;;;;;17.90;13.57;;;;;;;;;;5075637;28;20191;-51
2021/04/30 05:51:16;;;;;;;20.07;12.60;;;;;;;;;;5075042;28;20246;-56
2021/04/30 05:53:43;;;;;;;15.53;13.60;;;;;;;;;;5075040;28;20468;-54
2021/04/30 05:56:10;;;;;;;15.68;11.30;;;;;;;;;;5080574;28;20456;-50
2021/04/30 05:58:37;;;;;;;14.88;11.45;;;;;;;;;;5094468;28;20221;-56
2021/04/30 06:01:16;;;;;;;22.75;15.60;;;;;;;;;;5093830;28;20237;-54
2021/04/30 06:03:43;;;;;;;18.93;12.50;;;;;;;;;;5074722;28;20182;-57
2021/04/30 06:06:10;;;;;;;23.13;12.43;;;;;;;;;;5074426;28;20445;-53
2021/04/30 06:08:37;;;;;;;12.82;10.65;;;;;;;;;;5074393;28;20199;-54
2021/04/30 06:11:40;;;;;;;21.58;11.70;;;;;;;;;;5083680;28;20218;-52
2021/04/30 06:14:07;;;;;;;20.38;12.35;;;;;;;;;;5092277;28;20297;-54
2021/04/30 06:16:35;;;;;;;23.23;12.93;;;;;;;;;;5091180;28;20198;-51
2021/04/30 06:19:08;;;;;;;19.38;12.13;;;;;;;;;;5080905;28;20235;-53
2021/04/30 06:21:35;;;;;;;15.60;11.60;;;;;;;;;;5094229;28;20204;-53
2021/04/30 06:24:02;;;;;;;19.60;12.23;;;;;;;;;;5081132;28;20207;-49
2021/04/30 06:26:36;;;;;;;22.48;13.43;;;;;;;;;;5074355;28;20205;-56
2021/04/30 06:29:03;;;;;;;18.17;10.80;;;;;;;;;;5075426;28;20206;-53
2021/04/30 06:31:30;;;;;;;16.40;12.10;;;;;;;;;;5074013;28;20284;-58
2021/04/30 06:33:58;;;;;;;16.63;12.50;;;;;;;;;;5074324;28;20232;-50
2021/04/30 06:36:25;;;;;;;23.30;13.48;;;;;;;;;;5079311;28;20190;-55
2021/04/30 06:39:13;;;;;;;19.45;13.57;;;;;;;;;;5094812;28;20186;-56
2021/04/30 06:41:45;;;;;;;16.58;11.48;;;;;;;;;;5078868;28;20194;-54
2021/04/30 06:44:12;;;;;;;16.48;12.13;;;;;;;;;;5088088;28;20233;-46
2021/04/30 06:46:41;;;;;;;18.58;13.55;;;;;;;;;;5093969;28;20202;-51
2021/04/30 06:49:09;;;;;;;16.48;12.32;;;;;;;;;;5093841;28;20206;-53
2021/04/30 06:51:36;;;;;;;15.23;11.73;;;;;;;;;;5094251;28;20278;-57
2021/04/30 06:54:05;;;;;;;27.38;13.35;;;;;;;;;;5094222;28;20231;-55
2021/04/30 06:56:32;;;;;;;23.45;11.90;;;;;;;;;;5089487;28;20205;-55
2021/04/30 06:58:59;;;;;;;17.52;12.38;;;;;;;;;;5093923;28;20215;-52
2021/04/30 07:01:36;;;;;;;21.58;14.63;;;;;;;;;;5074281;28;20203;-54
2021/04/30 07:04:03;;;;;;;21.67;12.70;;;;;;;;;;5091698;28;20246;-56
2021/04/30 07:06:30;;;;;;;27.20;14.05;;;;;;;;;;5085912;28;20201;-57
2021/04/30 07:09:00;;;;;;;19.00;14.40;;;;;;;;;;5091213;28;20205;-52
2021/04/30 07:11:34;;;;;;;24.97;12.20;;;;;;;;;;5056527;28;20472;-48
2021/04/30 07:14:02;;;;;;;17.13;12.37;;;;;;;;;;5075009;28;20428;-59
2021/04/30 07:16:41;;;;;;;20.40;14.40;;;;;;;;;;5079611;28;20456;-58
2021/04/30 07:19:08;;;;;;;20.50;13.07;;;;;;;;;;5093510;28;20463;-61
2021/04/30 07:21:36;;;;;;;21.67;12.75;;;;;;;;;;5079032;28;20481;-53
2021/04/30 07:24:16;;;;;;;22.25;12.77;;;;;;;;;;5072887;28;20206;-59
2021/04/30 07:26:43;;;;;;;15.30;13.10;;;;;;;;;;5091482;28;20212;-57
2021/04/30 07:29:10;;;;;;;18.60;13.13;;;;;;;;;;5085847;28;20444;-56
2021/04/30 07:31:55;;;;;;;23.63;14.30;;;;;;;;;;5094128;28;20483;-52
2021/04/30 07:34:21;;;;;;;19.37;13.17;;;;;;;;;;5092385;28;20488;-54
2021/04/30 07:36:49;;;;;;;17.80;13.10;;;;;;;;;;5093661;28;20498;-53
2021/04/30 07:39:19;;;;;;;25.13;14.00;;;;;;;;;;5092730;28;20516;-55
2021/04/30 07:41:46;;;;;;;23.73;15.27;;;;;;;;;;5084891;28;20485;-51
2021/04/30 07:44:13;;;;;;;15.55;12.00;;;;;;;;;;5094047;28;20515;-56
2021/04/30 07:46:59;;;;;;;24.67;13.83;;;;;;;;;;5088008;28;20350;-54
2021/04/30 07:49:25;;;;;;;23.90;15.23;;;;;;;;;;5076459;28;20475;-61
2021/04/30 07:51:55;;;;;;;22.13;13.35;;;;;;;;;;5087848;28;20710;-56
2021/04/30 07:54:30;;;;;;;16.27;12.50;;;;;;;;;;5084753;28;20217;-58
2021/04/30 07:56:58;;;;;;;23.80;14.48;;;;;;;;;;5082811;28;20486;-51
2021/04/30 07:59:25;;;;;;;18.53;12.30;;;;;;;;;;5096807;28;20274;-61
2021/04/30 08:01:54;;;;;;;24.63;15.00;;;;;;;;;;5096880;28;20464;-58
2021/04/30 08:04:22;;;;;;;17.40;11.70;;;;;;;;;;5095775;28;20470;-53
2021/04/30 08:06:49;;;;;;;19.90;14.60;;;;;;;;;;5091205;28;20448;-59
2021/04/30 08:09:29;;;;;;;20.20;14.63;;;;;;;;;;5075762;28;20457;-58
2021/04/30 08:11:57;;;;;;;19.13;13.07;;;;;;;;;;5076033;28;20229;-56
2021/04/30 08:14:26;;;;;;;20.47;13.37;;;;;;;;;;5075405;28;20453;-56
2021/04/30 08:17:12;;;;;;;20.30;13.63;;;;;;;;;;5076038;28;20479;-53
2021/04/30 08:19:39;;;;;;;22.50;12.70;;;;;;;;;;5075473;28;20505;-52
2021/04/30 08:22:06;;;;;;;21.40;14.53;;;;;;;;;;5077099;28;20473;-58
2021/04/30 08:24:47;;;;;;;20.13;13.50;;;;;;;;;;5080022;28;20512;-64
2021/04/30 08:27:14;;;;;;;24.80;14.10;;;;;;;;;;5075872;28;20467;-56
2021/04/30 08:29:40;;;;;;;21.70;13.70;;;;;;;;;;5076214;28;20457;-48
2021/04/30 08:32:31;;;;;;;24.00;14.47;;;;;;;;;;5081429;28;20480;-59
2021/04/30 08:34:58;;;;;;;25.60;14.60;;;;;;;;;;5094203;28;20499;-53
2021/04/30 08:37:25;;;;;;;25.13;14.70;;;;;;;;;;5095176;28;20447;-56
2021/04/30 08:40:15;;;;;;;21.63;13.77;;;;;;;;;;5096006;28;20480;-55
2021/04/30 08:42:44;;;;;;;19.60;13.37;;;;;;;;;;5075753;28;20456;-57
2021/04/30 08:45:33;;;;;;;22.55;15.52;;;;;;;;;;5075083;28;20471;-57
2021/04/30 08:48:01;;;;;;;24.00;13.93;;;;;;;;;;5083078;28;20322;-60
2021/04/30 08:50:28;;;;;;;29.90;14.33;;;;;;;;;;5088483;28;20539;-58
2021/04/30 08:53:06;;;;;;;33.13;15.57;;;;;;;;;;5094552;28;20456;-54
2021/04/30 08:55:34;;;;;;;21.07;15.07;;;;;;;;;;5094226;28;20440;-56
2021/04/30 08:58:05;;;;;;;19.40;13.73;;;;;;;;;;5091533;28;20456;-55
2021/04/30 09:00:42;;;;;;;22.03;13.80;;;;;;;;;;5083402;28;20433;-56
2021/04/30 09:03:10;;;;;;;18.10;13.30;;;;;;;;;;5075714;28;20444;-53
2021/04/30 09:05:37;;;;;;;23.40;13.97;;;;;;;;;;5074735;28;20487;-54
2021/04/30 09:08:26;;;;;;;22.53;13.40;;;;;;;;;;5076657;28;20485;-57
2021/04/30 09:10:56;;;;;;;22.60;14.23;;;;;;;;;;5094730;28;20476;-54
2021/04/30 09:13:23;;;;;;;24.03;14.67;;;;;;;;;;5092022;28;20500;-55
2021/04/30 09:16:15;;;;;;;23.20;14.40;;;;;;;;;;5087702;28;20475;-54
2021/04/30 09:18:41;;;;;;;17.90;13.60;;;;;;;;;;5067356;28;20460;-56
2021/04/30 09:21:39;;;;;;;23.97;14.90;;;;;;;;;;5075556;28;20468;-59
2021/04/30 09:24:08;;;;;;;19.20;13.43;;;;;;;;;;5090205;28;20476;-57
2021/04/30 09:26:41;;;;;;;20.33;13.93;;;;;;;;;;5094332;28;20463;-55
2021/04/30 09:29:34;;;;;;;22.20;15.10;;;;;;;;;;5093825;28;20496;-56
2021/04/30 09:32:03;;;;;;;15.50;12.07;;;;;;;;;;5080561;28;20480;-51
2021/04/30 09:34:31;;;;;;;19.57;14.00;;;;;;;;;;5073898;28;20441;-60
2021/04/30 09:37:10;;;;;;;21.63;15.00;;;;;;;;;;5083364;28;20455;-55
2021/04/30 09:39:51;;;;;;;29.83;19.90;;;;;;;;;;5079473;28;20476;-55
2021/04/30 09:42:19;;;;;;;23.37;14.90;;;;;;;;;;5086754;28;20447;-50
2021/04/30 09:44:48;;;;;;;31.03;15.97;;;;;;;;;;5074030;28;20491;-55
2021/04/30 09:47:20;;;;;;;15.70;14.00;;;;;;;;;;5077767;28;20457;-56
2021/04/30 09:49:49;;;;;;;23.00;14.57;;;;;;;;;;5081755;28;20836;-57
2021/04/30 09:52:46;;;;;;;28.23;16.10;;;;;;;;;;5078567;28;20576;-53
2021/04/30 09:55:16;;;;;;;31.00;16.07;;;;;;;;;;5073888;28;20472;-59
2021/04/30 09:57:43;;;;;;;22.80;14.13;;;;;;;;;;5092317;28;20448;-56
2021/04/30 10:00:15;;;;;;;25.00;15.70;;;;;;;;;;5085078;28;20444;-56
2021/04/30 10:02:50;;;;;;;22.70;16.60;;;;;;;;;;5091881;28;20476;-55
2021/04/30 10:05:22;;;;;;;23.57;14.30;;;;;;;;;;5090217;28;20445;-54
2021/04/30 10:07:50;;;;;;;21.13;15.90;;;;;;;;;;5080313;28;20567;-50
2021/04/30 10:10:30;;;;;;;19.60;13.57;;;;;;;;;;5081835;28;20465;-57
2021/04/30 10:13:01;;;;;;;23.70;15.03;;;;;;;;;;5075461;28;20453;-55
2021/04/30 10:15:29;;;;;;;33.60;16.50;;;;;;;;;;5072613;28;20476;-57
2021/04/30 10:17:57;;;;;;;25.20;15.87;;;;;;;;;;5079715;28;20494;-59
2021/04/30 10:20:39;;;;;;;28.70;16.30;;;;;;;;;;5090530;28;20471;-57
2021/04/30 10:23:14;;;;;;;27.90;16.37;;;;;;;;;;5086314;28;20478;-59
2021/04/30 10:25:42;;;;;;;26.67;15.73;;;;;;;;;;5093011;28;20503;-56
2021/04/30 10:28:16;;;;;;;35.10;20.30;;;;;;;;;;5093934;28;20440;-54
2021/04/30 10:30:46;;;;;;;35.60;18.67;;;;;;;;;;5093657;28;20428;-51
2021/04/30 10:33:18;;;;;;;20.33;16.07;;;;;;;;;;5094138;28;20454;-54
2021/04/30 10:35:46;;;;;;;26.10;15.83;;;;;;;;;;5093707;28;20448;-53
2021/04/30 10:38:14;;;;;;;26.80;15.27;;;;;;;;;;5092229;28;20466;-59
2021/04/30 10:40:52;;;;;;;25.50;16.13;;;;;;;;;;5080461;28;20449;-55
2021/04/30 10:43:22;;;;;;;25.73;17.53;;;;;;;;;;5089117;28;21043;-54
2021/04/30 10:45:58;;;;;;;30.73;17.30;;;;;;;;;;5093806;28;20839;-55
2021/04/30 10:48:57;;;;;;;25.33;17.30;;;;;;;;;;5089335;28;20485;-54
2021/04/30 10:51:25;;;;;;;38.57;17.47;;;;;;;;;;5086872;28;20655;-55
2021/04/30 10:53:52;;;;;;;25.73;15.20;;;;;;;;;;5072767;28;20429;-57
2021/04/30 10:56:32;;;;;;;29.87;16.07;;;;;;;;;;5080231;28;20471;-58
2021/04/30 10:59:02;;;;;;;21.60;16.43;;;;;;;;;;5085207;28;20760;-55
2021/04/30 11:01:31;;;;;;;31.97;16.80;;;;;;;;;;5072476;28;20437;-56
2021/04/30 11:04:15;;;;;;;27.07;17.40;;;;;;;;;;5073578;28;20457;-53
2021/04/30 11:06:58;;;;;;;27.00;18.00;;;;;;;;;;5071528;28;20467;-55
2021/04/30 11:09:33;;;;;;;27.90;16.13;;;;;;;;;;5071719;28;20452;-52
2021/04/30 11:12:01;;;;;;;22.40;15.70;;;;;;;;;;5074621;28;20480;-55
2021/04/30 11:14:33;;;;;;;20.93;16.60;;;;;;;;;;5070869;28;20469;-55
2021/04/30 11:17:00;;;;;;;25.10;15.60;;;;;;;;;;5075168;28;20448;-57
2021/04/30 11:19:28;;;;;;;27.03;17.40;;;;;;;;;;5083967;28;20449;-59
2021/04/30 11:21:56;;;;;;;21.63;16.87;;;;;;;;;;5075684;28;20480;-56
2021/04/30 11:24:31;;;;;;;21.90;16.20;;;;;;;;;;5075331;28;20457;-48
2021/04/30 11:27:18;;;;;;;26.77;16.07;;;;;;;;;;5075579;28;20448;-57
2021/04/30 11:29:46;;;;;;;23.10;16.20;;;;;;;;;;5076147;28;20487;-59
2021/04/30 11:32:29;;;;;;;24.70;16.07;;;;;;;;;;5096013;28;20487;-53
2021/04/30 11:34:58;;;;;;;21.17;14.47;;;;;;;;;;5084870;28;20451;-54
2021/04/30 11:37:33;;;;;;;22.03;15.60;;;;;;;;;;5061498;28;20461;-55
2021/04/30 11:40:04;;;;;;;21.00;16.77;;;;;;;;;;5072058;28;20734;-56
2021/04/30 11:42:31;;;;;;;25.27;16.57;;;;;;;;;;5094948;28;20432;-53
2021/04/30 11:45:17;;;;;;;24.77;17.57;;;;;;;;;;5087083;28;20482;-55
2021/04/30 11:48:09;;;;;;;27.83;17.77;;;;;;;;;;5083303;28;20452;-56
2021/04/30 11:50:41;;;;;;;29.03;17.90;;;;;;;;;;5095891;28;20432;-54
2021/04/30 11:53:13;;;;;;;25.93;16.90;;;;;;;;;;5097143;28;20464;-58
2021/04/30 11:55:41;;;;;;;30.13;18.17;;;;;;;;;;5093155;28;20432;-55
2021/04/30 11:58:08;;;;;;;25.87;18.70;;;;;;;;;;5096105;28;20443;-55
2021/04/30 12:00:51;;;;;;;21.07;16.60;;;;;;;;;;5087413;28;20441;-60
2021/04/30 12:03:42;;;;;;;25.27;18.03;;;;;;;;;;5082342;28;20470;-57
2021/04/30 12:06:22;;;;;;;26.53;17.10;;;;;;;;;;5085537;28;20465;-57
2021/04/30 12:08:51;;;;;;;27.83;17.10;;;;;;;;;;5077931;28;20441;-54
2021/04/30 12:11:23;;;;;;;23.53;15.80;;;;;;;;;;5086058;28;20499;-52
2021/04/30 12:13:51;;;;;;;23.17;15.10;;;;;;;;;;5079357;28;20456;-48
2021/04/30 12:19:31;;;;;;;22.73;16.03;;;;;;;;;;5537664;22;20496;-58
2021/04/30 12:22:01;;;;;;;26.60;17.10;;;;;;;;;;5046476;28;20493;-51
2021/04/30 12:27:32;;;;;;;23.63;16.33;;;;;;;;;;5040674;28;20467;-57
2021/04/30 12:29:59;;;;;;;22.40;16.80;;;;;;;;;;5038594;28;20450;-58
2021/04/30 12:32:26;;;;;;;19.40;15.73;;;;;;;;;;5053700;28;20494;-54
2021/04/30 12:34:56;;;;;;;22.73;16.60;;;;;;;;;;5064128;28;20462;-59
2021/04/30 12:37:24;;;;;;;23.27;14.20;;;;;;;;;;5046282;28;20514;-59
2021/04/30 12:40:02;;;;;;;26.70;15.93;;;;;;;;;;5054123;28;20459;-56
2021/04/30 12:42:29;;;;;;;24.63;16.03;;;;;;;;;;5052666;28;20451;-52
2021/04/30 12:45:00;;;;;;;22.93;15.03;;;;;;;;;;5053805;28;20457;-57
2021/04/30 12:47:29;;;;;;;21.67;15.57;;;;;;;;;;5042901;28;20466;-59
2021/04/30 12:49:58;;;;;;;24.73;16.50;;;;;;;;;;5048795;28;20499;-60
2021/04/30 12:52:29;;;;;;;32.07;17.13;;;;;;;;;;5045135;28;20493;-56
2021/04/30 12:55:14;;;;;;;26.50;16.57;;;;;;;;;;5051819;28;20445;-56
2021/04/30 12:57:43;;;;;;;23.80;15.80;;;;;;;;;;5052343;28;20538;-60
2021/04/30 13:00:11;;;;;;;24.03;15.40;;;;;;;;;;5052891;28;20473;-56
2021/04/30 13:02:43;;;;;;;19.93;14.73;;;;;;;;;;5061172;28;20450;-53
2021/04/30 13:05:13;;;;;;;21.33;15.70;;;;;;;;;;5040382;28;20498;-55
2021/04/30 13:07:47;;;;;;;33.47;16.10;;;;;;;;;;5048899;28;20473;-55
2021/04/30 13:10:23;;;;;;;24.10;15.63;;;;;;;;;;5060193;28;20469;-54
2021/04/30 13:13:03;;;;;;;31.10;16.07;;;;;;;;;;5058846;28;20474;-55
2021/04/30 13:16:03;;;;;;;25.27;15.60;;;;;;;;;;5056298;28;20465;-55
2021/04/30 13:21:50;;;;;;;28.70;15.50;;;;;;;;;;5050766;28;20520;-57
2021/04/30 13:24:42;;;;;;;21.40;15.17;;;;;;;;;;5057100;28;20442;-55
2021/04/30 13:27:25;;;;;;;22.83;14.10;;;;;;;;;;5029685;28;20455;-52
2021/04/30 13:29:59;;;;;;;20.00;14.40;;;;;;;;;;5055580;28;20512;-56
2021/04/30 13:32:29;;;;;;;21.23;14.90;;;;;;;;;;5051152;28;20501;-57
2021/04/30 13:35:02;;;;;;;28.43;15.60;;;;;;;;;;5052603;28;20522;-55
2021/04/30 13:37:37;;;;;;;26.67;14.33;;;;;;;;;;5050006;28;20477;-58
2021/04/30 13:40:16;;;;;;;20.23;15.00;;;;;;;;;;5046283;28;20469;-58
2021/04/30 13:42:45;;;;;;;28.00;18.63;;;;;;;;;;5039446;28;20439;-58
2021/04/30 13:45:17;;;;;;;34.33;15.87;;;;;;;;;;5037528;28;20502;-57
2021/04/30 13:47:53;;;;;;;20.60;15.63;;;;;;;;;;5049638;28;20446;-59
2021/04/30 13:50:25;;;;;;;21.97;14.87;;;;;;;;;;5038240;28;20455;-57
2021/04/30 13:52:55;;;;;;;24.83;14.90;;;;;;;;;;5052170;28;20497;-57
2021/04/30 13:55:28;;;;;;;22.10;14.67;;;;;;;;;;5051074;28;20462;-56
2021/04/30 13:57:55;;;;;;;20.63;14.20;;;;;;;;;;5049684;28;20457;-58
2021/04/30 14:00:23;;;;;;;22.97;14.27;;;;;;;;;;5052205;28;20481;-55
2021/04/30 14:02:51;;;;;;;22.73;13.30;;;;;;;;;;5067967;28;20449;-53
2021/04/30 14:05:23;;;;;;;24.83;13.60;;;;;;;;;;5076160;28;20452;-57
2021/04/30 14:08:13;;;;;;;20.90;12.97;;;;;;;;;;5073740;28;20457;-52
2021/04/30 14:10:44;;;;;;;22.17;14.77;;;;;;;;;;5066116;28;20468;-57
2021/04/30 14:13:11;;;;;;;16.37;13.80;;;;;;;;;;5055727;28;20525;-50
2021/04/30 14:16:16;;;;;;;24.00;15.40;;;;;;;;;;5072958;28;20476;-53
2021/04/30 14:18:44;;;;;;;18.17;11.70;;;;;;;;;;5072115;28;20499;-60
2021/04/30 14:21:13;;;;;;;18.53;12.23;;;;;;;;;;5075831;28;20449;-54
2021/04/30 14:23:47;;;;;;;19.77;12.97;;;;;;;;;;5080191;28;20448;-58
2021/04/30 14:26:15;;;;;;;20.97;12.97;;;;;;;;;;5080012;28;20460;-60
2021/04/30 14:28:42;;;;;;;18.57;11.97;;;;;;;;;;5076420;28;20633;-56
2021/04/30 14:31:26;;;;;;;14.60;12.07;;;;;;;;;;5074668;28;20489;-56
2021/04/30 14:33:55;;;;;;;19.67;13.00;;;;;;;;;;5055383;28;20476;-54
2021/04/30 14:36:25;;;;;;;21.13;13.40;;;;;;;;;;5055304;28;20756;-58
2021/04/30 14:39:09;;;;;;;18.60;13.13;;;;;;;;;;5054567;28;20473;-51
2021/04/30 14:41:37;;;;;;;21.83;12.50;;;;;;;;;;5054539;28;20446;-54
2021/04/30 14:44:04;;;;;;;20.90;12.60;;;;;;;;;;5054393;28;20438;-61
2021/04/30 14:46:34;;;;;;;19.93;12.27;;;;;;;;;;5095117;28;20460;-56
2021/04/30 14:49:19;;;;;;;21.80;12.23;;;;;;;;;;5071827;28;20501;-59
2021/04/30 14:51:54;;;;;;;20.07;13.53;;;;;;;;;;5059879;28;20481;-56
2021/04/30 14:54:21;;;;;;;18.20;11.37;;;;;;;;;;5079663;28;20452;-53
2021/04/30 14:56:49;;;;;;;21.40;13.30;;;;;;;;;;5079272;28;20472;-52
2021/04/30 14:59:20;;;;;;;20.20;12.27;;;;;;;;;;5079359;28;20600;-51